CheckWX is a tool to help pilots better visualize weather data.  It is not intended as a substitute for an official pre-flight weather briefing.

01:08:04 UTC

CYZH METAR
Slave Lake Airport
Slave Lake, Canada
Current

1 hour ago

CYZH 240000Z AUTO 32005KT 9SM OVC036 M17/M21 A3047 RMK SLP377
Observed
Feb-24 @ 00:00 UTC
Wind
  • 320° at 5 KTS
Visibility
9 SM
Flight Rules
VFR
Cloud Levels
  • Overcast at 3,600' AGL
Temperature
-17°C / 1°F
Dewpoint
-21°C / -6°F
Humidity
71%
Altimeter
30.47" Hg
Pressure
1037.7 hPa
Previous

2 hours ago

CYZH 232300Z AUTO 30011KT 9SM OVC034 M16/M21 A3047 RMK SLP374
Observed
Feb-23 @ 23:00 UTC
Wind
  • 300° at 11 KTS
Visibility
9 SM
Flight Rules
VFR
Cloud Levels
  • Overcast at 3,400' AGL
Temperature
-16°C / 3°F
Dewpoint
-21°C / -6°F
Humidity
66%
Altimeter
30.47" Hg
Pressure
1037.4 hPa
Previous

3 hours ago

CYZH 232200Z AUTO 29010G15KT 9SM OVC030 M17/M21 A3046 RMK SLP373
Observed
Feb-23 @ 22:00 UTC
Wind
  • 290° at 10 KTS
  • Gusting to 15 KTS
Visibility
9 SM
Flight Rules
MVFR
Cloud Levels
  • Overcast at 3,000' AGL
Temperature
-17°C / 1°F
Dewpoint
-21°C / -6°F
Humidity
71%
Altimeter
30.46" Hg
Pressure
1037.3 hPa